Time;durP1;ratioP1;P1;durP2;ratioP2;P2;SDS_P1;SDS_P2;PMS_P1;PMS_P2;Temp;Humidity;BMP_temperature;BMP_pressure;BME280_temperature;BME280_humidity;BME280_pressure;Samples;Min_cycle;Max_cycle;Signal;HPM_P1;HPM_P2
2021/06/21 00:01:54;;;;;;;5.40;4.20;;;;;;;;;;5010574;28;20030;-62
2021/06/21 00:04:20;;;;;;;5.97;3.95;;;;;;;;;;5005137;28;20045;-62
2021/06/21 00:06:46;;;;;;;8.80;4.13;;;;;;;;;;5012228;28;20010;-69
2021/06/21 00:09:12;;;;;;;4.93;3.72;;;;;;;;;;5011644;28;20026;-65
2021/06/21 00:11:38;;;;;;;4.78;3.75;;;;;;;;;;5012075;28;20022;-62
2021/06/21 00:14:04;;;;;;;4.07;3.67;;;;;;;;;;5011501;28;20049;-71
2021/06/21 00:16:33;;;;;;;8.23;3.92;;;;;;;;;;5011972;28;20028;-69
2021/06/21 00:18:59;;;;;;;6.15;3.88;;;;;;;;;;5010888;28;20053;-64
2021/06/21 00:21:25;;;;;;;6.00;3.70;;;;;;;;;;5012013;28;20019;-67
2021/06/21 00:23:51;;;;;;;4.13;3.55;;;;;;;;;;5015215;28;20483;-67
2021/06/21 00:26:17;;;;;;;4.30;3.75;;;;;;;;;;5014094;28;20036;-64
2021/06/21 00:28:43;;;;;;;4.70;3.78;;;;;;;;;;5015966;28;20386;-69
2021/06/21 00:31:09;;;;;;;6.50;3.90;;;;;;;;;;5015668;28;20026;-61
2021/06/21 00:33:36;;;;;;;4.30;3.55;;;;;;;;;;5014867;28;20018;-64
2021/06/21 00:36:02;;;;;;;6.72;4.00;;;;;;;;;;5015603;28;20033;-63
2021/06/21 00:38:28;;;;;;;4.30;3.70;;;;;;;;;;5015806;28;20440;-70
2021/06/21 00:40:54;;;;;;;5.85;3.88;;;;;;;;;;5014881;28;20033;-65
2021/06/21 00:43:22;;;;;;;5.88;3.95;;;;;;;;;;5014074;28;20117;-68
2021/06/21 00:45:48;;;;;;;5.97;4.00;;;;;;;;;;5015247;28;20542;-62
2021/06/21 00:48:14;;;;;;;6.80;3.90;;;;;;;;;;5013639;28;20050;-69
2021/06/21 00:50:40;;;;;;;7.20;3.70;;;;;;;;;;5015858;28;20391;-67
2021/06/21 00:53:07;;;;;;;6.15;3.95;;;;;;;;;;5014333;28;20025;-63
2021/06/21 00:55:33;;;;;;;5.88;3.70;;;;;;;;;;5015588;28;20113;-66
2021/06/21 00:57:59;;;;;;;4.07;3.58;;;;;;;;;;5014940;28;20551;-64
2021/06/21 01:00:26;;;;;;;4.38;3.45;;;;;;;;;;5012553;28;20040;-66
2021/06/21 01:02:52;;;;;;;4.57;3.55;;;;;;;;;;5015198;28;20025;-62
2021/06/21 01:05:23;;;;;;;6.65;4.07;;;;;;;;;;5015333;28;20049;-67
2021/06/21 01:07:50;;;;;;;5.88;3.58;;;;;;;;;;5015253;28;20057;-69
2021/06/21 01:10:20;;;;;;;4.40;3.53;;;;;;;;;;5013920;28;20041;-62
2021/06/21 01:12:49;;;;;;;4.70;3.80;;;;;;;;;;5014882;28;20049;-64
2021/06/21 01:15:16;;;;;;;5.18;4.00;;;;;;;;;;5012880;28;20029;-62
2021/06/21 01:17:51;;;;;;;4.68;3.72;;;;;;;;;;5015408;28;20064;-62
2021/06/21 01:20:35;;;;;;;5.90;3.33;;;;;;;;;;5012493;28;20487;-65
2021/06/21 01:23:09;;;;;;;4.63;3.50;;;;;;;;;;5011779;28;20037;-72
2021/06/21 01:25:44;;;;;;;4.80;3.42;;;;;;;;;;5001147;28;20021;-65
2021/06/21 01:28:13;;;;;;;5.22;3.40;;;;;;;;;;5002225;28;20101;-66
2021/06/21 01:30:42;;;;;;;5.72;3.72;;;;;;;;;;5014711;28;20032;-64
2021/06/21 01:33:09;;;;;;;6.28;3.58;;;;;;;;;;5012666;28;20030;-67
2021/06/21 01:35:37;;;;;;;5.38;3.72;;;;;;;;;;5007908;28;20032;-63
2021/06/21 01:38:08;;;;;;;4.28;3.70;;;;;;;;;;5014579;28;20025;-62
2021/06/21 01:40:39;;;;;;;4.10;3.70;;;;;;;;;;5014124;28;20085;-63
2021/06/21 01:43:05;;;;;;;4.90;3.40;;;;;;;;;;5014749;28;20022;-65
2021/06/21 01:45:32;;;;;;;4.65;3.63;;;;;;;;;;5029776;28;20041;-62
2021/06/21 01:47:59;;;;;;;5.10;3.72;;;;;;;;;;5033798;28;20498;-62
2021/06/21 01:50:26;;;;;;;4.45;3.50;;;;;;;;;;5034423;28;20030;-64
2021/06/21 01:53:07;;;;;;;5.22;3.78;;;;;;;;;;5033501;28;20044;-70
2021/06/21 01:55:34;;;;;;;8.07;3.72;;;;;;;;;;5034271;28;20022;-65
2021/06/21 01:58:01;;;;;;;4.30;3.90;;;;;;;;;;5032115;28;20057;-61
2021/06/21 02:00:29;;;;;;;5.80;4.00;;;;;;;;;;5032712;28;20037;-62
2021/06/21 02:02:56;;;;;;;7.15;3.78;;;;;;;;;;5026413;28;20053;-72
2021/06/21 02:05:23;;;;;;;5.72;3.70;;;;;;;;;;5031770;28;20024;-62
2021/06/21 02:07:51;;;;;;;4.72;3.58;;;;;;;;;;5030299;28;20029;-62
2021/06/21 02:10:18;;;;;;;7.55;3.58;;;;;;;;;;5032325;28;20060;-61
2021/06/21 02:12:45;;;;;;;7.68;3.45;;;;;;;;;;5034122;28;20087;-61
2021/06/21 02:15:11;;;;;;;4.53;3.70;;;;;;;;;;5033027;28;20478;-62
2021/06/21 02:17:38;;;;;;;4.35;3.50;;;;;;;;;;5033778;28;20033;-72
2021/06/21 02:20:05;;;;;;;4.85;3.88;;;;;;;;;;5033064;28;20045;-70
2021/06/21 02:22:31;;;;;;;8.02;3.67;;;;;;;;;;5031111;28;20026;-63
2021/06/21 02:25:01;;;;;;;4.43;3.58;;;;;;;;;;5033341;28;20022;-71
2021/06/21 02:27:28;;;;;;;4.90;3.90;;;;;;;;;;5033522;28;20104;-68
2021/06/21 02:29:56;;;;;;;4.63;3.67;;;;;;;;;;5033215;28;20028;-69
2021/06/21 02:32:24;;;;;;;12.13;4.00;;;;;;;;;;5031561;28;20502;-67
2021/06/21 02:34:54;;;;;;;6.28;3.80;;;;;;;;;;5033825;28;20156;-65
2021/06/21 02:37:21;;;;;;;7.70;4.20;;;;;;;;;;5028866;28;20041;-61
2021/06/21 02:39:47;;;;;;;4.20;3.80;;;;;;;;;;5032977;28;20030;-62
2021/06/21 02:42:13;;;;;;;5.60;3.80;;;;;;;;;;5022506;28;20111;-61
2021/06/21 02:44:39;;;;;;;6.47;4.00;;;;;;;;;;5012472;28;20068;-71
2021/06/21 02:47:05;;;;;;;5.22;4.13;;;;;;;;;;5032682;28;20025;-69
2021/06/21 02:49:34;;;;;;;6.25;4.10;;;;;;;;;;5033265;28;20108;-63
2021/06/21 02:52:14;;;;;;;7.40;4.32;;;;;;;;;;5032889;28;20498;-62
2021/06/21 02:54:47;;;;;;;7.07;4.05;;;;;;;;;;5033190;28;20076;-68
2021/06/21 02:57:16;;;;;;;6.38;3.95;;;;;;;;;;5032192;28;20477;-62
2021/06/21 02:59:44;;;;;;;7.22;4.45;;;;;;;;;;5032845;28;20091;-63
2021/06/21 03:02:11;;;;;;;7.07;4.30;;;;;;;;;;5030172;28;20029;-70
2021/06/21 03:04:39;;;;;;;7.72;4.15;;;;;;;;;;5033063;28;20067;-69
2021/06/21 03:07:07;;;;;;;6.72;4.05;;;;;;;;;;5032941;28;20024;-64
2021/06/21 03:09:34;;;;;;;5.32;4.25;;;;;;;;;;5032793;28;20052;-62
2021/06/21 03:12:00;;;;;;;5.25;4.03;;;;;;;;;;5031484;28;20105;-62
2021/06/21 03:14:28;;;;;;;5.07;3.95;;;;;;;;;;5032935;28;20021;-72
2021/06/21 03:16:56;;;;;;;7.15;4.25;;;;;;;;;;5029630;28;20030;-62
2021/06/21 03:19:23;;;;;;;7.75;4.00;;;;;;;;;;5032648;28;20481;-71
2021/06/21 03:21:49;;;;;;;6.78;4.10;;;;;;;;;;5028242;28;20033;-62
2021/06/21 03:24:15;;;;;;;6.43;4.22;;;;;;;;;;5032442;28;20029;-62
2021/06/21 03:26:42;;;;;;;7.15;4.50;;;;;;;;;;5032486;28;20501;-64
2021/06/21 03:29:13;;;;;;;7.55;4.30;;;;;;;;;;5027964;28;20025;-61
2021/06/21 03:31:39;;;;;;;7.72;4.30;;;;;;;;;;5023959;28;20038;-73
2021/06/21 03:34:05;;;;;;;6.90;4.30;;;;;;;;;;5029052;28;20049;-66
2021/06/21 03:36:31;;;;;;;5.28;3.92;;;;;;;;;;5030989;28;20053;-67
2021/06/21 03:38:59;;;;;;;7.45;4.15;;;;;;;;;;5026409;28;20029;-65
2021/06/21 03:41:25;;;;;;;4.85;4.07;;;;;;;;;;5032182;28;20025;-69
2021/06/21 03:43:51;;;;;;;5.35;4.28;;;;;;;;;;5023759;28;20525;-61
2021/06/21 03:46:17;;;;;;;6.13;4.40;;;;;;;;;;4997116;28;20511;-62
2021/06/21 03:48:43;;;;;;;8.95;4.30;;;;;;;;;;5007340;28;20030;-66
2021/06/21 03:51:09;;;;;;;6.60;4.53;;;;;;;;;;5001540;28;20018;-66
2021/06/21 03:53:35;;;;;;;8.85;4.43;;;;;;;;;;5012531;28;20030;-69
2021/06/21 03:56:01;;;;;;;6.80;4.03;;;;;;;;;;5010001;28;20058;-66
2021/06/21 03:58:28;;;;;;;6.20;4.03;;;;;;;;;;5008997;28;20087;-68
2021/06/21 04:00:54;;;;;;;6.40;4.32;;;;;;;;;;5011371;28;20033;-74
2021/06/21 04:03:23;;;;;;;6.50;4.35;;;;;;;;;;5006225;28;20037;-62
2021/06/21 04:05:49;;;;;;;8.95;4.63;;;;;;;;;;5011252;28;20069;-69
2021/06/21 04:08:17;;;;;;;10.38;4.80;;;;;;;;;;5010302;28;20050;-64
2021/06/21 04:10:43;;;;;;;11.20;4.60;;;;;;;;;;5011382;28;20030;-71
2021/06/21 04:13:10;;;;;;;9.30;4.90;;;;;;;;;;5005815;28;20034;-65
2021/06/21 04:15:36;;;;;;;10.63;4.63;;;;;;;;;;5011611;28;20462;-65
2021/06/21 04:18:07;;;;;;;7.50;4.60;;;;;;;;;;5009992;28;20468;-77
2021/06/21 04:20:33;;;;;;;9.27;4.10;;;;;;;;;;5007129;28;20395;-63
2021/06/21 04:22:59;;;;;;;8.80;4.07;;;;;;;;;;5009722;28;20050;-66
2021/06/21 04:25:26;;;;;;;12.13;4.20;;;;;;;;;;5010531;28;20034;-67
2021/06/21 04:27:52;;;;;;;9.18;4.32;;;;;;;;;;5010034;28;20116;-62
2021/06/21 04:30:19;;;;;;;7.95;3.72;;;;;;;;;;5010098;28;20121;-66
2021/06/21 04:32:45;;;;;;;6.45;4.10;;;;;;;;;;5009152;28;20022;-65
2021/06/21 04:35:13;;;;;;;8.57;4.05;;;;;;;;;;5009347;28;20378;-73
2021/06/21 04:37:39;;;;;;;7.93;4.38;;;;;;;;;;5003374;28;20480;-73
2021/06/21 04:40:06;;;;;;;7.70;4.22;;;;;;;;;;5008168;28;20124;-65
2021/06/21 04:42:32;;;;;;;11.48;4.20;;;;;;;;;;5008598;28;20483;-60
2021/06/21 04:44:58;;;;;;;11.35;4.30;;;;;;;;;;5009294;28;20057;-62
2021/06/21 04:47:24;;;;;;;8.05;4.13;;;;;;;;;;5010243;28;20021;-67
2021/06/21 04:49:53;;;;;;;9.02;3.95;;;;;;;;;;5010339;28;20479;-61
2021/06/21 04:52:22;;;;;;;8.30;3.88;;;;;;;;;;5011554;28;20026;-61
2021/06/21 04:54:49;;;;;;;8.57;3.50;;;;;;;;;;5010301;28;20017;-66
2021/06/21 04:57:15;;;;;;;13.13;4.30;;;;;;;;;;5008744;28;20037;-61
2021/06/21 04:59:41;;;;;;;9.20;4.80;;;;;;;;;;5008195;28;20022;-61
2021/06/21 05:02:07;;;;;;;13.77;4.68;;;;;;;;;;5009926;28;20030;-65
2021/06/21 05:04:33;;;;;;;7.88;3.75;;;;;;;;;;5011001;28;20040;-63
2021/06/21 05:06:59;;;;;;;7.50;4.07;;;;;;;;;;5011158;28;20037;-62
2021/06/21 05:09:25;;;;;;;11.55;6.35;;;;;;;;;;5014281;28;20021;-64
2021/06/21 05:11:51;;;;;;;10.65;5.07;;;;;;;;;;5014305;28;20022;-69
2021/06/21 05:14:18;;;;;;;5.60;3.85;;;;;;;;;;5015175;28;20061;-64
2021/06/21 05:16:44;;;;;;;10.30;3.50;;;;;;;;;;5015074;28;20100;-70
2021/06/21 05:19:10;;;;;;;7.65;3.53;;;;;;;;;;5011957;28;20839;-61
2021/06/21 05:21:36;;;;;;;8.27;3.88;;;;;;;;;;5011089;28;20029;-65
2021/06/21 05:24:03;;;;;;;5.05;3.80;;;;;;;;;;5014262;28;20076;-65
2021/06/21 05:26:29;;;;;;;8.20;3.90;;;;;;;;;;5013946;28;20040;-61
2021/06/21 05:28:55;;;;;;;10.32;4.10;;;;;;;;;;5013963;28;20029;-71
2021/06/21 05:31:22;;;;;;;8.68;3.50;;;;;;;;;;5012705;28;20026;-69
2021/06/21 05:33:48;;;;;;;7.40;3.85;;;;;;;;;;5020251;28;20060;-65
2021/06/21 05:36:15;;;;;;;13.45;4.63;;;;;;;;;;5013301;28;20502;-62
2021/06/21 05:38:41;;;;;;;12.02;3.60;;;;;;;;;;5012374;28;20029;-64
2021/06/21 05:41:07;;;;;;;7.50;3.40;;;;;;;;;;5012781;28;20388;-64
2021/06/21 05:43:33;;;;;;;13.43;4.55;;;;;;;;;;5016866;28;20046;-66
2021/06/21 05:45:59;;;;;;;19.15;5.75;;;;;;;;;;5033600;28;20535;-67
2021/06/21 05:48:25;;;;;;;15.93;5.10;;;;;;;;;;5036653;28;20026;-71
2021/06/21 05:50:52;;;;;;;11.07;4.20;;;;;;;;;;5033759;28;20029;-68
2021/06/21 05:53:18;;;;;;;5.55;3.33;;;;;;;;;;5033524;28;20026;-82
2021/06/21 05:55:45;;;;;;;8.25;3.38;;;;;;;;;;5035465;28;20027;-81
2021/06/21 05:58:11;;;;;;;5.22;3.50;;;;;;;;;;5037071;28;20033;-79
2021/06/21 06:00:40;;;;;;;7.97;3.83;;;;;;;;;;5038682;28;20034;-83
2021/06/21 06:03:06;;;;;;;5.38;3.58;;;;;;;;;;5017687;28;20018;-66
2021/06/21 06:05:32;;;;;;;6.13;3.50;;;;;;;;;;5032766;28;20088;-65
2021/06/21 06:07:58;;;;;;;5.00;3.72;;;;;;;;;;5032619;28;20475;-62
2021/06/21 06:10:24;;;;;;;7.25;4.40;;;;;;;;;;5035512;28;20028;-64
2021/06/21 06:12:51;;;;;;;10.40;5.22;;;;;;;;;;5032129;28;20041;-64
2021/06/21 06:15:17;;;;;;;9.98;5.30;;;;;;;;;;5037372;28;20363;-65
2021/06/21 06:17:43;;;;;;;15.55;5.65;;;;;;;;;;5032462;28;20025;-72
2021/06/21 06:20:10;;;;;;;13.18;3.50;;;;;;;;;;5038145;28;20041;-66
2021/06/21 06:22:36;;;;;;;11.10;3.95;;;;;;;;;;5034980;28;20052;-70
2021/06/21 06:25:02;;;;;;;4.38;3.30;;;;;;;;;;5040720;28;20390;-68
2021/06/21 06:27:28;;;;;;;9.82;3.38;;;;;;;;;;5037568;28;20109;-70
2021/06/21 06:29:54;;;;;;;8.75;3.60;;;;;;;;;;5032566;28;20032;-60
2021/06/21 06:32:20;;;;;;;4.00;3.20;;;;;;;;;;5033366;28;20029;-59
2021/06/21 06:34:46;;;;;;;6.40;3.30;;;;;;;;;;5033782;28;20071;-60
2021/06/21 06:37:12;;;;;;;3.90;3.17;;;;;;;;;;5035443;28;20037;-69
2021/06/21 06:39:38;;;;;;;7.47;3.20;;;;;;;;;;5039291;28;20633;-67
2021/06/21 06:42:05;;;;;;;13.05;3.80;;;;;;;;;;5033460;28;20025;-65
2021/06/21 06:44:31;;;;;;;5.22;3.00;;;;;;;;;;5019214;28;20042;-66
2021/06/21 06:46:57;;;;;;;9.52;3.60;;;;;;;;;;5019996;28;20032;-68
2021/06/21 06:49:23;;;;;;;6.00;3.85;;;;;;;;;;5012767;28;20068;-63
2021/06/21 06:51:54;;;;;;;5.20;3.45;;;;;;;;;;5011624;28;20180;-61
2021/06/21 06:54:27;;;;;;;6.47;3.53;;;;;;;;;;5013974;28;20207;-80
2021/06/21 06:57:00;;;;;;;6.45;3.65;;;;;;;;;;5010051;28;20168;-78
2021/06/21 06:59:30;;;;;;;7.78;3.03;;;;;;;;;;5014035;28;20021;-79
2021/06/21 07:01:57;;;;;;;7.05;3.70;;;;;;;;;;5000362;28;20029;-83
2021/06/21 07:04:23;;;;;;;4.93;3.58;;;;;;;;;;5014517;28;20030;-72
2021/06/21 07:06:50;;;;;;;7.85;3.67;;;;;;;;;;4997802;28;20026;-74
2021/06/21 07:09:16;;;;;;;6.85;3.42;;;;;;;;;;4998442;28;20029;-72
2021/06/21 07:11:43;;;;;;;7.22;3.85;;;;;;;;;;5010695;28;20021;-71
2021/06/21 07:14:09;;;;;;;3.97;3.40;;;;;;;;;;5009724;28;20030;-74
2021/06/21 07:16:36;;;;;;;4.40;3.42;;;;;;;;;;4994977;28;20021;-70
2021/06/21 07:19:02;;;;;;;4.57;3.10;;;;;;;;;;5011348;28;20025;-74
2021/06/21 07:21:28;;;;;;;6.65;3.88;;;;;;;;;;5013141;28;20080;-78
2021/06/21 07:23:55;;;;;;;7.10;3.30;;;;;;;;;;5009167;28;20033;-78
2021/06/21 07:26:21;;;;;;;8.02;3.50;;;;;;;;;;5007789;28;20494;-79
2021/06/21 07:28:47;;;;;;;6.82;3.53;;;;;;;;;;5011430;28;20037;-78
2021/06/21 07:31:13;;;;;;;6.25;3.30;;;;;;;;;;5004616;28;20023;-80
2021/06/21 07:33:39;;;;;;;7.40;4.10;;;;;;;;;;4994328;28;20033;-83
2021/06/21 07:36:06;;;;;;;8.25;3.40;;;;;;;;;;4993991;28;20402;-67
2021/06/21 07:38:33;;;;;;;6.65;3.45;;;;;;;;;;5011860;28;20030;-66
2021/06/21 07:40:59;;;;;;;6.10;3.67;;;;;;;;;;5012453;28;20364;-67
2021/06/21 07:43:25;;;;;;;5.20;4.03;;;;;;;;;;5010706;28;20037;-67
2021/06/21 07:45:51;;;;;;;8.43;4.53;;;;;;;;;;5011880;28;20029;-67
2021/06/21 07:48:17;;;;;;;5.38;3.45;;;;;;;;;;5009385;28;20037;-69
2021/06/21 07:50:43;;;;;;;10.80;5.20;;;;;;;;;;5007249;28;20435;-72
2021/06/21 07:53:10;;;;;;;7.38;4.60;;;;;;;;;;5010040;28;20052;-68
2021/06/21 07:55:36;;;;;;;6.88;3.78;;;;;;;;;;5009052;28;20041;-81
2021/06/21 07:58:03;;;;;;;4.63;3.65;;;;;;;;;;4991774;28;20087;-75
2021/06/21 08:00:29;;;;;;;7.78;4.13;;;;;;;;;;5008829;28;20068;-75
2021/06/21 08:02:56;;;;;;;6.90;3.67;;;;;;;;;;5009182;28;20014;-68
2021/06/21 08:05:23;;;;;;;7.93;3.75;;;;;;;;;;5010520;28;20037;-69
2021/06/21 08:07:49;;;;;;;7.80;3.38;;;;;;;;;;5011896;28;20156;-86
2021/06/21 08:10:16;;;;;;;6.10;3.58;;;;;;;;;;4992365;28;20025;-85
2021/06/21 08:12:43;;;;;;;9.43;3.78;;;;;;;;;;5010760;28;20383;-77
2021/06/21 08:15:10;;;;;;;4.65;3.58;;;;;;;;;;5010211;28;20036;-77
2021/06/21 08:17:36;;;;;;;7.15;3.58;;;;;;;;;;5007718;28;20033;-75
2021/06/21 08:20:04;;;;;;;9.55;3.50;;;;;;;;;;5002858;28;20053;-78
2021/06/21 08:22:30;;;;;;;7.93;3.47;;;;;;;;;;5005889;28;20091;-75
2021/06/21 08:24:56;;;;;;;5.35;3.67;;;;;;;;;;5008703;28;20096;-75
2021/06/21 08:27:23;;;;;;;5.38;3.30;;;;;;;;;;5007996;28;20510;-61
2021/06/21 08:29:49;;;;;;;5.15;3.63;;;;;;;;;;5010318;28;20030;-66
2021/06/21 08:32:15;;;;;;;12.95;4.18;;;;;;;;;;5010496;28;20033;-66
2021/06/21 08:34:41;;;;;;;8.18;4.10;;;;;;;;;;5010420;28;20034;-66
2021/06/21 08:37:08;;;;;;;20.40;7.95;;;;;;;;;;5009963;28;20022;-67
2021/06/21 08:39:36;;;;;;;22.80;7.38;;;;;;;;;;5009667;28;20034;-67
2021/06/21 08:42:02;;;;;;;6.88;4.15;;;;;;;;;;5006163;28;20550;-65
2021/06/21 08:44:28;;;;;;;6.35;3.75;;;;;;;;;;5010587;28;20129;-65
2021/06/21 08:46:56;;;;;;;6.15;3.92;;;;;;;;;;5014391;28;20471;-67
2021/06/21 08:49:22;;;;;;;9.68;3.88;;;;;;;;;;5012303;28;20034;-67
2021/06/21 08:51:52;;;;;;;6.80;3.58;;;;;;;;;;5015006;28;20112;-65
2021/06/21 08:54:18;;;;;;;7.20;3.75;;;;;;;;;;5012577;28;20018;-63
2021/06/21 08:56:44;;;;;;;5.60;3.80;;;;;;;;;;5011880;28;20030;-62
2021/06/21 08:59:11;;;;;;;6.03;3.80;;;;;;;;;;5015857;28;20077;-65
2021/06/21 09:01:40;;;;;;;6.78;3.75;;;;;;;;;;5013383;28;20030;-61
2021/06/21 09:04:10;;;;;;;7.65;3.70;;;;;;;;;;5011779;28;20026;-61
2021/06/21 09:06:38;;;;;;;6.28;3.70;;;;;;;;;;5012670;28;20072;-72
2021/06/21 09:09:05;;;;;;;6.25;3.60;;;;;;;;;;5016691;28;20068;-65
2021/06/21 09:11:49;;;;;;;5.25;3.63;;;;;;;;;;5013248;28;20033;-69
2021/06/21 09:14:30;;;;;;;8.13;4.05;;;;;;;;;;5013135;28;20172;-66
2021/06/21 09:16:58;;;;;;;6.97;3.67;;;;;;;;;;5012813;28;20025;-62
2021/06/21 09:19:24;;;;;;;6.15;4.20;;;;;;;;;;5010443;28;20491;-64
2021/06/21 09:21:50;;;;;;;7.10;3.80;;;;;;;;;;5013208;28;20057;-67
2021/06/21 09:24:17;;;;;;;6.80;3.53;;;;;;;;;;5016773;28;20026;-68
2021/06/21 09:26:43;;;;;;;6.28;3.95;;;;;;;;;;5013669;28;20479;-64
2021/06/21 09:29:10;;;;;;;12.07;4.25;;;;;;;;;;5014380;28;20456;-61
2021/06/21 09:31:53;;;;;;;7.10;4.13;;;;;;;;;;5011689;28;20033;-61
2021/06/21 09:34:20;;;;;;;10.20;4.55;;;;;;;;;;5009946;28;20026;-72
2021/06/21 09:36:46;;;;;;;7.60;4.35;;;;;;;;;;5014532;28;20463;-62
2021/06/21 09:39:21;;;;;;;5.90;3.72;;;;;;;;;;5012060;28;20042;-67
2021/06/21 09:42:04;;;;;;;4.95;3.60;;;;;;;;;;5013621;28;20430;-70
2021/06/21 09:44:31;;;;;;;8.80;4.15;;;;;;;;;;5008782;28;20053;-66
2021/06/21 09:47:16;;;;;;;6.28;3.97;;;;;;;;;;5013135;28;20121;-67
2021/06/21 09:49:54;;;;;;;7.82;4.35;;;;;;;;;;5015997;28;20045;-73
2021/06/21 09:52:36;;;;;;;7.15;4.20;;;;;;;;;;5012588;28;20033;-65
2021/06/21 09:55:15;;;;;;;7.60;4.22;;;;;;;;;;5015909;28;20518;-63
2021/06/21 09:57:41;;;;;;;13.52;4.57;;;;;;;;;;5010491;28;20034;-72
2021/06/21 10:00:11;;;;;;;12.48;5.22;;;;;;;;;;5015667;28;20050;-71
2021/06/21 10:02:38;;;;;;;8.30;4.63;;;;;;;;;;5012346;28;20030;-67
2021/06/21 10:05:05;;;;;;;7.90;4.72;;;;;;;;;;5011702;28;20045;-63
2021/06/21 10:07:31;;;;;;;11.18;5.47;;;;;;;;;;5013172;28;20037;-73
2021/06/21 10:09:59;;;;;;;7.20;4.05;;;;;;;;;;5011924;28;20030;-63
2021/06/21 10:12:25;;;;;;;7.25;4.38;;;;;;;;;;5009337;28;20061;-67
2021/06/21 10:14:51;;;;;;;103.95;56.17;;;;;;;;;;5012582;28;20041;-69
2021/06/21 10:17:18;;;;;;;32.15;17.35;;;;;;;;;;5015700;28;20022;-62
2021/06/21 10:19:44;;;;;;;47.35;26.85;;;;;;;;;;5012385;28;20041;-68
2021/06/21 10:22:10;;;;;;;14.50;7.95;;;;;;;;;;5014489;28;20046;-65
2021/06/21 10:24:37;;;;;;;11.63;4.97;;;;;;;;;;5011885;28;20030;-64
2021/06/21 10:27:05;;;;;;;28.80;15.20;;;;;;;;;;5012861;28;20117;-64
2021/06/21 10:29:32;;;;;;;32.90;17.92;;;;;;;;;;5014661;28;20415;-62
2021/06/21 10:31:59;;;;;;;37.25;21.10;;;;;;;;;;5018940;28;20546;-61
2021/06/21 10:34:25;;;;;;;13.75;8.25;;;;;;;;;;5009768;28;20483;-62
2021/06/21 10:36:56;;;;;;;5.40;4.32;;;;;;;;;;5018930;28;20069;-68
2021/06/21 10:39:23;;;;;;;11.18;6.32;;;;;;;;;;5015322;28;20033;-64
2021/06/21 10:42:05;;;;;;;8.10;5.30;;;;;;;;;;5012311;28;20513;-77
2021/06/21 10:44:46;;;;;;;12.23;5.72;;;;;;;;;;5023854;28;20069;-79
2021/06/21 10:47:30;;;;;;;10.82;5.80;;;;;;;;;;5027700;28;20021;-75
2021/06/21 10:49:57;;;;;;;9.82;6.00;;;;;;;;;;5030558;28;20052;-72
2021/06/21 10:52:34;;;;;;;26.80;9.07;;;;;;;;;;5031710;28;20032;-72
2021/06/21 10:55:18;;;;;;;7.03;4.43;;;;;;;;;;5031637;28;20509;-74
2021/06/21 10:57:44;;;;;;;8.95;4.18;;;;;;;;;;5030527;28;20030;-72
2021/06/21 11:00:12;;;;;;;8.18;4.43;;;;;;;;;;5031464;28;20060;-59
2021/06/21 11:02:38;;;;;;;8.50;4.50;;;;;;;;;;5027751;28;20022;-67
2021/06/21 11:05:05;;;;;;;8.40;4.63;;;;;;;;;;5040507;28;20036;-68
2021/06/21 11:07:32;;;;;;;8.40;4.40;;;;;;;;;;5031276;28;20033;-68
2021/06/21 11:09:59;;;;;;;9.20;5.47;;;;;;;;;;5013345;28;20186;-66
2021/06/21 11:12:28;;;;;;;7.32;4.97;;;;;;;;;;5033741;28;20042;-68
2021/06/21 11:15:09;;;;;;;6.95;4.60;;;;;;;;;;5031004;28;20079;-67
2021/06/21 11:17:53;;;;;;;7.18;4.65;;;;;;;;;;5032519;28;20029;-67
2021/06/21 11:20:29;;;;;;;6.63;4.40;;;;;;;;;;5027003;28;20171;-66
2021/06/21 11:23:02;;;;;;;12.80;4.97;;;;;;;;;;5030407;28;20029;-67
2021/06/21 11:25:30;;;;;;;9.73;4.80;;;;;;;;;;5025756;28;20100;-72
2021/06/21 11:27:56;;;;;;;6.22;4.80;;;;;;;;;;5027771;28;20028;-66
2021/06/21 11:30:27;;;;;;;11.73;5.78;;;;;;;;;;5038330;28;20490;-70
2021/06/21 11:33:06;;;;;;;6.20;4.82;;;;;;;;;;5032128;28;20029;-76
2021/06/21 11:35:53;;;;;;;7.65;4.82;;;;;;;;;;5031425;28;20534;-65
2021/06/21 11:38:45;;;;;;;11.63;5.45;;;;;;;;;;5031651;28;20100;-59
2021/06/21 11:41:19;;;;;;;8.77;4.72;;;;;;;;;;5022091;28;20053;-63
2021/06/21 11:43:53;;;;;;;7.43;4.72;;;;;;;;;;5028461;28;20054;-61
2021/06/21 11:46:35;;;;;;;8.85;5.00;;;;;;;;;;5026750;28;20025;-87
2021/06/21 11:49:08;;;;;;;6.40;5.13;;;;;;;;;;5007131;28;20041;-70
2021/06/21 11:51:34;;;;;;;8.90;5.18;;;;;;;;;;5034939;28;20029;-67
2021/06/21 11:54:01;;;;;;;6.93;5.43;;;;;;;;;;5032848;28;20311;-72
2021/06/21 11:56:28;;;;;;;10.85;5.40;;;;;;;;;;5034112;28;20028;-73
2021/06/21 11:58:54;;;;;;;8.70;5.22;;;;;;;;;;5030822;28;20040;-71
2021/06/21 12:01:24;;;;;;;10.00;5.60;;;;;;;;;;5031628;28;20033;-74
2021/06/21 12:04:00;;;;;;;6.00;5.30;;;;;;;;;;5012819;28;20067;-78
2021/06/21 12:06:27;;;;;;;7.00;5.40;;;;;;;;;;5032107;28;20025;-81
2021/06/21 12:08:54;;;;;;;7.40;5.60;;;;;;;;;;5028599;28;20025;-67
2021/06/21 12:11:21;;;;;;;10.00;5.28;;;;;;;;;;5031245;28;20032;-66
2021/06/21 12:13:55;;;;;;;9.23;5.80;;;;;;;;;;5030019;28;20037;-70
2021/06/21 12:16:21;;;;;;;15.18;6.25;;;;;;;;;;5028156;28;20065;-71
2021/06/21 12:18:55;;;;;;;12.18;6.05;;;;;;;;;;5027443;28;20077;-66
2021/06/21 12:21:29;;;;;;;7.95;5.63;;;;;;;;;;5030414;28;20068;-61
2021/06/21 12:23:55;;;;;;;8.60;5.03;;;;;;;;;;5036883;28;20025;-62
2021/06/21 12:26:21;;;;;;;9.15;5.53;;;;;;;;;;5024920;28;20028;-59
2021/06/21 12:28:48;;;;;;;9.13;5.88;;;;;;;;;;5029035;28;20071;-70
2021/06/21 12:31:17;;;;;;;8.02;5.53;;;;;;;;;;5028868;28;20026;-69
2021/06/21 12:33:43;;;;;;;11.05;5.63;;;;;;;;;;5037842;28;20466;-70
2021/06/21 12:36:10;;;;;;;8.75;5.35;;;;;;;;;;5029769;28;20037;-67
2021/06/21 12:38:54;;;;;;;9.30;5.40;;;;;;;;;;5032521;28;20028;-77
2021/06/21 12:41:22;;;;;;;9.10;5.60;;;;;;;;;;5037367;28;20083;-73
2021/06/21 12:43:54;;;;;;;7.60;5.22;;;;;;;;;;5022638;28;20508;-75
2021/06/21 12:46:21;;;;;;;10.05;5.47;;;;;;;;;;5007221;28;20113;-68
2021/06/21 12:48:47;;;;;;;10.85;5.38;;;;;;;;;;5010763;28;20053;-69
2021/06/21 12:51:14;;;;;;;12.38;5.20;;;;;;;;;;5010317;28;20022;-68
2021/06/21 12:53:44;;;;;;;10.82;5.43;;;;;;;;;;5011030;28;20088;-70
2021/06/21 12:56:30;;;;;;;13.00;5.60;;;;;;;;;;4993620;28;20048;-69
2021/06/21 12:59:00;;;;;;;10.13;5.10;;;;;;;;;;5010802;28;20057;-70
2021/06/21 13:01:35;;;;;;;13.73;5.38;;;;;;;;;;5016749;28;20042;-74
2021/06/21 13:04:15;;;;;;;11.90;5.43;;;;;;;;;;5010180;28;20033;-73
2021/06/21 13:06:42;;;;;;;8.25;5.30;;;;;;;;;;5008648;28;20053;-77
2021/06/21 13:09:11;;;;;;;9.80;5.53;;;;;;;;;;5009162;28;20593;-75
2021/06/21 13:11:50;;;;;;;8.85;5.35;;;;;;;;;;5008097;28;20029;-67
2021/06/21 13:14:17;;;;;;;7.95;5.20;;;;;;;;;;4994913;28;20030;-69
2021/06/21 13:16:43;;;;;;;9.32;4.80;;;;;;;;;;5000677;28;20114;-80
2021/06/21 13:19:16;;;;;;;11.55;5.80;;;;;;;;;;5007671;28;20087;-63
2021/06/21 13:21:50;;;;;;;8.88;5.22;;;;;;;;;;5001811;28;20095;-67
2021/06/21 13:24:33;;;;;;;8.95;5.30;;;;;;;;;;5007202;28;20079;-64
2021/06/21 13:26:59;;;;;;;9.93;5.28;;;;;;;;;;5008983;28;20471;-69
2021/06/21 13:29:26;;;;;;;11.25;5.35;;;;;;;;;;5009671;28;20049;-75
2021/06/21 13:31:53;;;;;;;9.38;5.20;;;;;;;;;;5014220;28;20032;-63
2021/06/21 13:34:38;;;;;;;14.98;5.43;;;;;;;;;;5014201;28;20034;-69
2021/06/21 13:37:04;;;;;;;10.05;5.78;;;;;;;;;;4997122;28;20018;-71
2021/06/21 13:39:30;;;;;;;9.27;5.55;;;;;;;;;;4999900;28;20395;-71
2021/06/21 13:42:00;;;;;;;10.88;5.10;;;;;;;;;;5013622;28;20135;-72
2021/06/21 13:44:27;;;;;;;12.13;6.22;;;;;;;;;;5013975;28;20049;-73
2021/06/21 13:46:54;;;;;;;11.85;5.60;;;;;;;;;;5013813;28;20049;-72
2021/06/21 13:49:22;;;;;;;9.10;5.63;;;;;;;;;;5011231;28;20030;-71
2021/06/21 13:52:08;;;;;;;9.75;5.47;;;;;;;;;;5009049;28;20033;-73
2021/06/21 13:54:34;;;;;;;12.07;5.70;;;;;;;;;;5013377;28;20109;-66
2021/06/21 13:57:07;;;;;;;14.95;5.78;;;;;;;;;;5013981;28;20034;-76
2021/06/21 14:00:03;;;;;;;14.63;5.53;;;;;;;;;;5009991;28;20356;-71
2021/06/21 14:02:39;;;;;;;11.27;5.40;;;;;;;;;;4953265;29;20035;-73
2021/06/21 14:05:06;;;;;;;11.98;5.55;;;;;;;;;;4952165;28;20125;-74
2021/06/21 14:07:34;;;;;;;13.52;5.50;;;;;;;;;;4955088;28;20038;-69
2021/06/21 14:10:00;;;;;;;15.80;5.30;;;;;;;;;;4952671;29;20054;-73
2021/06/21 14:12:26;;;;;;;14.77;5.53;;;;;;;;;;4958901;28;20039;-72
2021/06/21 14:30:18;;;;;;;9.02;5.10;;;;;;;;;;5116984;27;20379;-67
2021/06/21 14:32:44;;;;;;;25.20;6.00;;;;;;;;;;5109785;28;20507;-66
2021/06/21 14:35:10;;;;;;;37.50;7.70;;;;;;;;;;5110010;28;20036;-70
2021/06/21 14:37:36;;;;;;;8.75;5.47;;;;;;;;;;5108914;28;20051;-72
2021/06/21 14:40:07;;;;;;;15.13;5.13;;;;;;;;;;5101431;28;20438;-69
2021/06/21 14:42:33;;;;;;;13.18;5.32;;;;;;;;;;5099628;28;20066;-73
2021/06/21 14:44:59;;;;;;;12.07;5.40;;;;;;;;;;5098820;28;20290;-71
2021/06/21 14:47:25;;;;;;;10.82;6.00;;;;;;;;;;5109373;28;20095;-65
2021/06/21 14:52:50;;;;;;;10.43;5.60;;;;;;;;;;5075141;28;20118;-72
2021/06/21 14:55:17;;;;;;;13.60;5.45;;;;;;;;;;5081687;28;20079;-75
2021/06/21 14:57:45;;;;;;;31.98;6.22;;;;;;;;;;5077632;28;20083;-67
2021/06/21 15:00:15;;;;;;;12.30;5.82;;;;;;;;;;5087155;28;20043;-72
2021/06/21 15:02:41;;;;;;;14.55;5.53;;;;;;;;;;5079838;28;20505;-74
2021/06/21 15:05:08;;;;;;;10.57;5.80;;;;;;;;;;5082801;28;20044;-72